sensor_id;sensor_type;location;lat;lon;timestamp;temperature;humidity
15656;DHT22;7928;43.614;1.456;2023-07-30T00:01:39;24.50;99.90
15656;DHT22;7928;43.614;1.456;2023-07-30T00:04:06;24.50;99.90
15656;DHT22;7928;43.614;1.456;2023-07-30T00:06:33;24.50;99.90
15656;DHT22;7928;43.614;1.456;2023-07-30T00:09:00;24.50;99.90
15656;DHT22;7928;43.614;1.456;2023-07-30T00:11:28;24.50;99.90
15656;DHT22;7928;43.614;1.456;2023-07-30T00:13:55;24.50;99.90
15656;DHT22;7928;43.614;1.456;2023-07-30T00:16:22;24.40;99.90
15656;DHT22;7928;43.614;1.456;2023-07-30T00:18:49;24.20;99.90
15656;DHT22;7928;43.614;1.456;2023-07-30T00:21:16;24.10;99.90
15656;DHT22;7928;43.614;1.456;2023-07-30T00:23:43;24.20;99.90
15656;DHT22;7928;43.614;1.456;2023-07-30T00:26:10;24.20;99.90
15656;DHT22;7928;43.614;1.456;2023-07-30T00:28:38;24.20;99.90
15656;DHT22;7928;43.614;1.456;2023-07-30T00:31:05;24.20;99.90
15656;DHT22;7928;43.614;1.456;2023-07-30T00:33:32;24.30;99.90
15656;DHT22;7928;43.614;1.456;2023-07-30T00:35:59;24.40;99.90
15656;DHT22;7928;43.614;1.456;2023-07-30T00:38:26;24.40;99.90
15656;DHT22;7928;43.614;1.456;2023-07-30T00:40:53;24.40;99.90
15656;DHT22;7928;43.614;1.456;2023-07-30T00:43:21;24.40;99.90
15656;DHT22;7928;43.614;1.456;2023-07-30T00:45:50;24.40;99.90
15656;DHT22;7928;43.614;1.456;2023-07-30T00:48:17;24.30;99.90
15656;DHT22;7928;43.614;1.456;2023-07-30T00:50:44;24.30;99.90
15656;DHT22;7928;43.614;1.456;2023-07-30T00:53:14;24.30;99.90
15656;DHT22;7928;43.614;1.456;2023-07-30T00:55:41;24.20;99.90
15656;DHT22;7928;43.614;1.456;2023-07-30T00:58:10;24.10;99.90
15656;DHT22;7928;43.614;1.456;2023-07-30T01:00:37;24.10;99.90
15656;DHT22;7928;43.614;1.456;2023-07-30T01:03:05;24.00;99.90
15656;DHT22;7928;43.614;1.456;2023-07-30T01:05:32;23.90;99.90
15656;DHT22;7928;43.614;1.456;2023-07-30T01:08:00;23.80;99.90
15656;DHT22;7928;43.614;1.456;2023-07-30T01:10:27;23.80;99.90
15656;DHT22;7928;43.614;1.456;2023-07-30T01:12:57;23.80;99.90
15656;DHT22;7928;43.614;1.456;2023-07-30T01:15:26;23.80;99.90
15656;DHT22;7928;43.614;1.456;2023-07-30T01:17:53;23.90;99.90
15656;DHT22;7928;43.614;1.456;2023-07-30T01:20:22;23.90;99.90
15656;DHT22;7928;43.614;1.456;2023-07-30T01:22:50;23.90;99.90
15656;DHT22;7928;43.614;1.456;2023-07-30T01:25:18;23.90;99.90
15656;DHT22;7928;43.614;1.456;2023-07-30T01:27:49;24.00;99.90
15656;DHT22;7928;43.614;1.456;2023-07-30T01:30:22;23.90;99.90
15656;DHT22;7928;43.614;1.456;2023-07-30T01:32:52;23.90;99.90
15656;DHT22;7928;43.614;1.456;2023-07-30T01:35:21;23.80;99.90
15656;DHT22;7928;43.614;1.456;2023-07-30T01:37:50;23.80;99.90
15656;DHT22;7928;43.614;1.456;2023-07-30T01:40:18;23.60;99.90
15656;DHT22;7928;43.614;1.456;2023-07-30T01:42:45;23.60;99.90
15656;DHT22;7928;43.614;1.456;2023-07-30T01:45:12;23.50;99.90
15656;DHT22;7928;43.614;1.456;2023-07-30T01:47:39;23.50;99.90
15656;DHT22;7928;43.614;1.456;2023-07-30T01:50:06;23.50;99.90
15656;DHT22;7928;43.614;1.456;2023-07-30T01:52:34;23.50;99.90
15656;DHT22;7928;43.614;1.456;2023-07-30T01:55:02;23.30;99.90
15656;DHT22;7928;43.614;1.456;2023-07-30T01:57:29;23.30;99.90
15656;DHT22;7928;43.614;1.456;2023-07-30T01:59:56;23.40;99.90
15656;DHT22;7928;43.614;1.456;2023-07-30T02:02:23;23.40;99.90
15656;DHT22;7928;43.614;1.456;2023-07-30T02:04:50;23.40;99.90
15656;DHT22;7928;43.614;1.456;2023-07-30T02:07:17;23.30;99.90
15656;DHT22;7928;43.614;1.456;2023-07-30T02:09:44;23.30;99.90
15656;DHT22;7928;43.614;1.456;2023-07-30T02:12:12;23.30;99.90
15656;DHT22;7928;43.614;1.456;2023-07-30T02:14:39;23.30;99.90
15656;DHT22;7928;43.614;1.456;2023-07-30T02:17:06;23.30;99.90
15656;DHT22;7928;43.614;1.456;2023-07-30T02:19:33;23.30;99.90
15656;DHT22;7928;43.614;1.456;2023-07-30T02:22:00;23.30;99.90
15656;DHT22;7928;43.614;1.456;2023-07-30T02:24:27;23.30;99.90
15656;DHT22;7928;43.614;1.456;2023-07-30T02:26:54;23.20;99.90
15656;DHT22;7928;43.614;1.456;2023-07-30T02:29:22;23.20;99.90
15656;DHT22;7928;43.614;1.456;2023-07-30T02:31:49;23.20;99.90
15656;DHT22;7928;43.614;1.456;2023-07-30T02:34:16;23.20;99.90
15656;DHT22;7928;43.614;1.456;2023-07-30T02:36:43;23.10;99.90
15656;DHT22;7928;43.614;1.456;2023-07-30T02:39:10;23.00;99.90
15656;DHT22;7928;43.614;1.456;2023-07-30T02:41:37;23.00;99.90
15656;DHT22;7928;43.614;1.456;2023-07-30T02:44:04;22.90;99.90
15656;DHT22;7928;43.614;1.456;2023-07-30T02:46:32;22.90;99.90
15656;DHT22;7928;43.614;1.456;2023-07-30T02:48:59;23.00;99.90
15656;DHT22;7928;43.614;1.456;2023-07-30T02:51:26;23.00;99.90
15656;DHT22;7928;43.614;1.456;2023-07-30T02:53:57;23.00;99.90
15656;DHT22;7928;43.614;1.456;2023-07-30T02:56:25;23.00;99.90
15656;DHT22;7928;43.614;1.456;2023-07-30T02:58:52;22.90;99.90
15656;DHT22;7928;43.614;1.456;2023-07-30T03:01:19;22.90;99.90
15656;DHT22;7928;43.614;1.456;2023-07-30T03:03:47;22.90;99.90
15656;DHT22;7928;43.614;1.456;2023-07-30T03:06:14;22.90;99.90
15656;DHT22;7928;43.614;1.456;2023-07-30T03:08:42;22.80;99.90
15656;DHT22;7928;43.614;1.456;2023-07-30T03:11:09;22.80;99.90
15656;DHT22;7928;43.614;1.456;2023-07-30T03:13:36;22.80;99.90
15656;DHT22;7928;43.614;1.456;2023-07-30T03:16:04;22.70;99.90
15656;DHT22;7928;43.614;1.456;2023-07-30T03:18:31;22.70;99.90
15656;DHT22;7928;43.614;1.456;2023-07-30T03:20:59;22.70;99.90
15656;DHT22;7928;43.614;1.456;2023-07-30T03:23:26;22.70;99.90
15656;DHT22;7928;43.614;1.456;2023-07-30T03:25:53;22.70;99.90
15656;DHT22;7928;43.614;1.456;2023-07-30T03:28:20;22.70;99.90
15656;DHT22;7928;43.614;1.456;2023-07-30T03:30:47;22.70;99.90
15656;DHT22;7928;43.614;1.456;2023-07-30T03:33:14;22.60;99.90
15656;DHT22;7928;43.614;1.456;2023-07-30T03:35:41;22.50;99.90
15656;DHT22;7928;43.614;1.456;2023-07-30T03:38:09;22.50;99.90
15656;DHT22;7928;43.614;1.456;2023-07-30T03:40:36;22.60;99.90
15656;DHT22;7928;43.614;1.456;2023-07-30T03:43:03;22.60;99.90
15656;DHT22;7928;43.614;1.456;2023-07-30T03:45:30;22.60;99.90
15656;DHT22;7928;43.614;1.456;2023-07-30T03:47:58;22.50;99.90
15656;DHT22;7928;43.614;1.456;2023-07-30T03:50:25;22.40;99.90
15656;DHT22;7928;43.614;1.456;2023-07-30T03:52:52;22.40;99.90
15656;DHT22;7928;43.614;1.456;2023-07-30T03:55:21;22.30;99.90
15656;DHT22;7928;43.614;1.456;2023-07-30T03:57:48;22.30;99.90
15656;DHT22;7928;43.614;1.456;2023-07-30T04:00:15;22.30;99.90
15656;DHT22;7928;43.614;1.456;2023-07-30T04:02:42;22.30;99.90
15656;DHT22;7928;43.614;1.456;2023-07-30T04:05:09;22.40;99.90
15656;DHT22;7928;43.614;1.456;2023-07-30T04:07:36;22.30;99.90
15656;DHT22;7928;43.614;1.456;2023-07-30T04:10:03;22.30;99.90
15656;DHT22;7928;43.614;1.456;2023-07-30T04:12:31;22.40;99.90
15656;DHT22;7928;43.614;1.456;2023-07-30T04:14:58;22.30;99.90
15656;DHT22;7928;43.614;1.456;2023-07-30T04:17:25;22.30;99.90
15656;DHT22;7928;43.614;1.456;2023-07-30T04:19:52;22.30;99.90
15656;DHT22;7928;43.614;1.456;2023-07-30T04:22:19;22.20;99.90
15656;DHT22;7928;43.614;1.456;2023-07-30T04:24:46;22.20;99.90
15656;DHT22;7928;43.614;1.456;2023-07-30T04:27:13;22.20;99.90
15656;DHT22;7928;43.614;1.456;2023-07-30T04:29:42;22.10;99.90
15656;DHT22;7928;43.614;1.456;2023-07-30T04:32:08;22.00;99.90
15656;DHT22;7928;43.614;1.456;2023-07-30T04:34:35;22.00;99.90
15656;DHT22;7928;43.614;1.456;2023-07-30T04:37:03;22.10;99.90
15656;DHT22;7928;43.614;1.456;2023-07-30T04:39:32;22.00;99.90
15656;DHT22;7928;43.614;1.456;2023-07-30T04:41:59;22.00;99.90
15656;DHT22;7928;43.614;1.456;2023-07-30T04:44:27;22.00;99.90
15656;DHT22;7928;43.614;1.456;2023-07-30T04:46:55;22.00;99.90
15656;DHT22;7928;43.614;1.456;2023-07-30T04:49:22;21.90;99.90
15656;DHT22;7928;43.614;1.456;2023-07-30T04:51:49;22.00;99.90
15656;DHT22;7928;43.614;1.456;2023-07-30T04:54:16;22.00;99.90
15656;DHT22;7928;43.614;1.456;2023-07-30T04:56:43;21.90;99.90
15656;DHT22;7928;43.614;1.456;2023-07-30T04:59:10;21.90;99.90
15656;DHT22;7928;43.614;1.456;2023-07-30T05:01:36;22.00;99.90
15656;DHT22;7928;43.614;1.456;2023-07-30T05:04:05;22.00;99.90
15656;DHT22;7928;43.614;1.456;2023-07-30T05:06:32;22.00;99.90
15656;DHT22;7928;43.614;1.456;2023-07-30T05:08:59;22.10;99.90
15656;DHT22;7928;43.614;1.456;2023-07-30T05:11:26;22.10;99.90
15656;DHT22;7928;43.614;1.456;2023-07-30T05:13:53;22.10;99.90
15656;DHT22;7928;43.614;1.456;2023-07-30T05:16:20;22.00;99.90
15656;DHT22;7928;43.614;1.456;2023-07-30T05:18:47;22.10;99.90
15656;DHT22;7928;43.614;1.456;2023-07-30T05:21:15;22.20;99.90
15656;DHT22;7928;43.614;1.456;2023-07-30T05:23:42;22.20;99.90
15656;DHT22;7928;43.614;1.456;2023-07-30T05:26:09;22.10;99.90
15656;DHT22;7928;43.614;1.456;2023-07-30T05:28:36;22.20;99.90
15656;DHT22;7928;43.614;1.456;2023-07-30T05:31:03;22.20;99.90
15656;DHT22;7928;43.614;1.456;2023-07-30T05:33:30;22.30;99.90
15656;DHT22;7928;43.614;1.456;2023-07-30T05:35:57;22.30;99.90
15656;DHT22;7928;43.614;1.456;2023-07-30T05:38:25;22.30;99.90
15656;DHT22;7928;43.614;1.456;2023-07-30T05:40:52;22.40;99.90
15656;DHT22;7928;43.614;1.456;2023-07-30T05:43:19;22.40;99.90
15656;DHT22;7928;43.614;1.456;2023-07-30T05:45:46;22.40;99.90
15656;DHT22;7928;43.614;1.456;2023-07-30T05:48:13;22.50;99.90
15656;DHT22;7928;43.614;1.456;2023-07-30T05:50:40;22.40;99.90
15656;DHT22;7928;43.614;1.456;2023-07-30T05:53:07;22.30;99.90
15656;DHT22;7928;43.614;1.456;2023-07-30T05:55:35;22.40;99.90
15656;DHT22;7928;43.614;1.456;2023-07-30T05:58:02;22.40;99.90
15656;DHT22;7928;43.614;1.456;2023-07-30T06:00:29;22.50;99.90
15656;DHT22;7928;43.614;1.456;2023-07-30T06:02:56;22.40;99.90
15656;DHT22;7928;43.614;1.456;2023-07-30T06:05:23;22.40;99.90
15656;DHT22;7928;43.614;1.456;2023-07-30T06:07:50;22.40;99.90
15656;DHT22;7928;43.614;1.456;2023-07-30T06:10:17;22.50;99.90
15656;DHT22;7928;43.614;1.456;2023-07-30T06:12:45;22.50;99.90
15656;DHT22;7928;43.614;1.456;2023-07-30T06:15:12;22.50;99.90
15656;DHT22;7928;43.614;1.456;2023-07-30T06:17:39;22.50;99.90
15656;DHT22;7928;43.614;1.456;2023-07-30T06:20:08;22.50;99.90
15656;DHT22;7928;43.614;1.456;2023-07-30T06:22:35;22.50;99.90
15656;DHT22;7928;43.614;1.456;2023-07-30T06:25:02;22.60;99.90
15656;DHT22;7928;43.614;1.456;2023-07-30T06:27:29;22.50;99.90
15656;DHT22;7928;43.614;1.456;2023-07-30T06:29:57;22.50;99.90
15656;DHT22;7928;43.614;1.456;2023-07-30T06:32:24;22.50;99.90
15656;DHT22;7928;43.614;1.456;2023-07-30T06:34:51;22.50;99.90
15656;DHT22;7928;43.614;1.456;2023-07-30T06:37:18;22.50;99.90
15656;DHT22;7928;43.614;1.456;2023-07-30T06:39:45;22.40;99.90
15656;DHT22;7928;43.614;1.456;2023-07-30T06:42:12;22.50;99.90
15656;DHT22;7928;43.614;1.456;2023-07-30T06:44:39;22.60;99.90
15656;DHT22;7928;43.614;1.456;2023-07-30T06:47:07;22.70;99.90
15656;DHT22;7928;43.614;1.456;2023-07-30T06:49:34;22.70;99.90
15656;DHT22;7928;43.614;1.456;2023-07-30T06:52:03;22.80;99.90
15656;DHT22;7928;43.614;1.456;2023-07-30T06:54:30;22.90;99.90
15656;DHT22;7928;43.614;1.456;2023-07-30T06:56:57;23.10;99.90
15656;DHT22;7928;43.614;1.456;2023-07-30T06:59:24;23.30;99.90
15656;DHT22;7928;43.614;1.456;2023-07-30T07:01:50;23.40;99.90
15656;DHT22;7928;43.614;1.456;2023-07-30T07:04:20;23.70;99.90
15656;DHT22;7928;43.614;1.456;2023-07-30T07:06:47;23.80;99.90
15656;DHT22;7928;43.614;1.456;2023-07-30T07:09:14;24.00;99.90
15656;DHT22;7928;43.614;1.456;2023-07-30T07:11:41;24.10;99.90
15656;DHT22;7928;43.614;1.456;2023-07-30T07:14:08;24.10;99.90
15656;DHT22;7928;43.614;1.456;2023-07-30T07:16:35;24.20;99.90
15656;DHT22;7928;43.614;1.456;2023-07-30T07:19:02;24.10;99.90
15656;DHT22;7928;43.614;1.456;2023-07-30T07:21:31;24.10;99.90
15656;DHT22;7928;43.614;1.456;2023-07-30T07:23:58;24.10;99.90
15656;DHT22;7928;43.614;1.456;2023-07-30T07:26:24;24.10;99.90
15656;DHT22;7928;43.614;1.456;2023-07-30T07:28:51;24.10;99.90
15656;DHT22;7928;43.614;1.456;2023-07-30T07:31:18;24.10;99.90
15656;DHT22;7928;43.614;1.456;2023-07-30T07:33:45;24.10;99.90
15656;DHT22;7928;43.614;1.456;2023-07-30T07:36:12;24.30;99.90
15656;DHT22;7928;43.614;1.456;2023-07-30T07:38:41;24.50;99.90
15656;DHT22;7928;43.614;1.456;2023-07-30T07:41:14;24.70;99.90
15656;DHT22;7928;43.614;1.456;2023-07-30T07:43:41;24.60;99.90
15656;DHT22;7928;43.614;1.456;2023-07-30T07:46:08;24.60;99.90
15656;DHT22;7928;43.614;1.456;2023-07-30T07:48:40;24.70;99.90
15656;DHT22;7928;43.614;1.456;2023-07-30T07:51:07;24.80;99.90
15656;DHT22;7928;43.614;1.456;2023-07-30T07:53:34;24.70;99.90
15656;DHT22;7928;43.614;1.456;2023-07-30T07:56:03;24.90;99.90
15656;DHT22;7928;43.614;1.456;2023-07-30T07:58:31;24.90;99.90
15656;DHT22;7928;43.614;1.456;2023-07-30T08:00:59;24.90;99.90
15656;DHT22;7928;43.614;1.456;2023-07-30T08:03:26;24.80;99.90
15656;DHT22;7928;43.614;1.456;2023-07-30T08:05:53;24.80;99.90
15656;DHT22;7928;43.614;1.456;2023-07-30T08:08:20;24.70;99.90
15656;DHT22;7928;43.614;1.456;2023-07-30T08:10:47;25.00;99.90
15656;DHT22;7928;43.614;1.456;2023-07-30T08:13:16;25.10;99.90
15656;DHT22;7928;43.614;1.456;2023-07-30T08:15:43;25.30;99.90
15656;DHT22;7928;43.614;1.456;2023-07-30T08:18:10;25.40;99.90
15656;DHT22;7928;43.614;1.456;2023-07-30T08:20:37;25.60;99.90
15656;DHT22;7928;43.614;1.456;2023-07-30T08:23:04;25.80;99.90
15656;DHT22;7928;43.614;1.456;2023-07-30T08:25:31;25.90;99.90
15656;DHT22;7928;43.614;1.456;2023-07-30T08:27:58;26.10;99.90
15656;DHT22;7928;43.614;1.456;2023-07-30T08:30:26;26.20;99.90
15656;DHT22;7928;43.614;1.456;2023-07-30T08:32:53;26.00;99.90
15656;DHT22;7928;43.614;1.456;2023-07-30T08:35:20;25.80;99.90
15656;DHT22;7928;43.614;1.456;2023-07-30T08:37:47;25.90;99.90
15656;DHT22;7928;43.614;1.456;2023-07-30T08:40:14;26.10;99.90
15656;DHT22;7928;43.614;1.456;2023-07-30T08:42:41;26.20;99.90
15656;DHT22;7928;43.614;1.456;2023-07-30T08:45:09;26.30;99.90
15656;DHT22;7928;43.614;1.456;2023-07-30T08:47:39;26.00;99.90
15656;DHT22;7928;43.614;1.456;2023-07-30T08:50:06;26.10;99.90
15656;DHT22;7928;43.614;1.456;2023-07-30T08:52:35;25.60;99.90
15656;DHT22;7928;43.614;1.456;2023-07-30T08:55:03;25.90;99.90
15656;DHT22;7928;43.614;1.456;2023-07-30T08:57:30;26.10;99.90
15656;DHT22;7928;43.614;1.456;2023-07-30T09:00:02;25.90;99.90
15656;DHT22;7928;43.614;1.456;2023-07-30T09:02:34;25.90;99.90
15656;DHT22;7928;43.614;1.456;2023-07-30T09:05:06;26.00;99.90
15656;DHT22;7928;43.614;1.456;2023-07-30T09:07:33;26.40;99.90
15656;DHT22;7928;43.614;1.456;2023-07-30T09:10:00;26.50;99.90
15656;DHT22;7928;43.614;1.456;2023-07-30T09:12:29;26.70;99.90
15656;DHT22;7928;43.614;1.456;2023-07-30T09:14:56;26.90;99.90
15656;DHT22;7928;43.614;1.456;2023-07-30T09:17:23;27.10;99.90
15656;DHT22;7928;43.614;1.456;2023-07-30T09:19:50;27.10;99.90
15656;DHT22;7928;43.614;1.456;2023-07-30T09:22:26;27.20;99.70
15656;DHT22;7928;43.614;1.456;2023-07-30T09:24:53;27.40;99.50
15656;DHT22;7928;43.614;1.456;2023-07-30T09:27:21;27.50;98.70
15656;DHT22;7928;43.614;1.456;2023-07-30T09:29:53;27.50;98.70
15656;DHT22;7928;43.614;1.456;2023-07-30T09:32:20;27.40;98.30
15656;DHT22;7928;43.614;1.456;2023-07-30T09:34:47;27.20;98.50
15656;DHT22;7928;43.614;1.456;2023-07-30T09:37:14;27.50;98.30
15656;DHT22;7928;43.614;1.456;2023-07-30T09:39:43;27.50;98.00
15656;DHT22;7928;43.614;1.456;2023-07-30T09:42:10;27.50;98.60
15656;DHT22;7928;43.614;1.456;2023-07-30T09:44:37;27.50;98.40
15656;DHT22;7928;43.614;1.456;2023-07-30T09:47:09;27.50;98.50
15656;DHT22;7928;43.614;1.456;2023-07-30T09:49:36;27.60;98.40
15656;DHT22;7928;43.614;1.456;2023-07-30T09:52:04;27.70;98.60
15656;DHT22;7928;43.614;1.456;2023-07-30T09:54:32;27.70;98.30
15656;DHT22;7928;43.614;1.456;2023-07-30T09:57:00;27.70;98.30
15656;DHT22;7928;43.614;1.456;2023-07-30T09:59:27;27.80;98.60
15656;DHT22;7928;43.614;1.456;2023-07-30T10:01:55;28.10;98.40
15656;DHT22;7928;43.614;1.456;2023-07-30T10:04:23;28.00;97.60
15656;DHT22;7928;43.614;1.456;2023-07-30T10:06:54;28.10;97.60
15656;DHT22;7928;43.614;1.456;2023-07-30T10:09:23;28.20;97.50
15656;DHT22;7928;43.614;1.456;2023-07-30T10:11:53;27.80;97.30
15656;DHT22;7928;43.614;1.456;2023-07-30T10:14:23;27.70;98.00
15656;DHT22;7928;43.614;1.456;2023-07-30T10:16:52;28.00;97.50
15656;DHT22;7928;43.614;1.456;2023-07-30T10:19:22;28.40;97.30
15656;DHT22;7928;43.614;1.456;2023-07-30T10:21:50;28.70;96.70
15656;DHT22;7928;43.614;1.456;2023-07-30T10:24:17;28.50;96.40
15656;DHT22;7928;43.614;1.456;2023-07-30T10:26:44;28.60;96.90
15656;DHT22;7928;43.614;1.456;2023-07-30T10:29:15;28.80;96.20
15656;DHT22;7928;43.614;1.456;2023-07-30T10:31:54;28.50;96.30
15656;DHT22;7928;43.614;1.456;2023-07-30T10:34:21;28.30;96.50
15656;DHT22;7928;43.614;1.456;2023-07-30T10:36:52;28.50;96.30
15656;DHT22;7928;43.614;1.456;2023-07-30T10:39:28;28.30;96.30
15656;DHT22;7928;43.614;1.456;2023-07-30T10:41:56;28.20;96.70
15656;DHT22;7928;43.614;1.456;2023-07-30T10:44:26;28.10;96.90
15656;DHT22;7928;43.614;1.456;2023-07-30T10:46:55;28.00;96.90
15656;DHT22;7928;43.614;1.456;2023-07-30T10:49:24;28.10;96.60
15656;DHT22;7928;43.614;1.456;2023-07-30T10:51:51;28.30;96.70
15656;DHT22;7928;43.614;1.456;2023-07-30T10:54:19;28.50;97.00
15656;DHT22;7928;43.614;1.456;2023-07-30T10:56:46;29.10;96.60
15656;DHT22;7928;43.614;1.456;2023-07-30T10:59:14;29.50;95.90
15656;DHT22;7928;43.614;1.456;2023-07-30T11:01:42;29.80;95.60
15656;DHT22;7928;43.614;1.456;2023-07-30T11:04:13;30.40;95.00
15656;DHT22;7928;43.614;1.456;2023-07-30T11:06:45;30.60;94.20
15656;DHT22;7928;43.614;1.456;2023-07-30T11:09:18;30.60;93.90
15656;DHT22;7928;43.614;1.456;2023-07-30T11:11:46;31.30;93.80
15656;DHT22;7928;43.614;1.456;2023-07-30T11:14:15;31.60;93.50
15656;DHT22;7928;43.614;1.456;2023-07-30T11:16:48;32.20;92.40
15656;DHT22;7928;43.614;1.456;2023-07-30T11:19:17;31.70;92.40
15656;DHT22;7928;43.614;1.456;2023-07-30T11:21:44;31.60;92.60
15656;DHT22;7928;43.614;1.456;2023-07-30T11:24:12;32.30;92.10
15656;DHT22;7928;43.614;1.456;2023-07-30T11:26:39;33.30;91.00
15656;DHT22;7928;43.614;1.456;2023-07-30T11:29:14;33.90;90.00
15656;DHT22;7928;43.614;1.456;2023-07-30T11:31:42;33.90;89.00
15656;DHT22;7928;43.614;1.456;2023-07-30T11:34:10;34.50;87.70
15656;DHT22;7928;43.614;1.456;2023-07-30T11:36:39;34.20;86.20
15656;DHT22;7928;43.614;1.456;2023-07-30T11:39:07;33.20;87.20
15656;DHT22;7928;43.614;1.456;2023-07-30T11:41:34;33.00;87.60
15656;DHT22;7928;43.614;1.456;2023-07-30T11:44:01;33.40;89.00
15656;DHT22;7928;43.614;1.456;2023-07-30T11:46:30;33.10;87.40
15656;DHT22;7928;43.614;1.456;2023-07-30T11:49:11;32.50;88.50
15656;DHT22;7928;43.614;1.456;2023-07-30T11:51:40;32.20;89.80
15656;DHT22;7928;43.614;1.456;2023-07-30T11:54:17;32.40;89.70
15656;DHT22;7928;43.614;1.456;2023-07-30T11:56:44;32.50;88.80
15656;DHT22;7928;43.614;1.456;2023-07-30T11:59:11;33.40;88.10
15656;DHT22;7928;43.614;1.456;2023-07-30T12:01:39;34.00;86.40
15656;DHT22;7928;43.614;1.456;2023-07-30T12:04:08;34.50;84.60
15656;DHT22;7928;43.614;1.456;2023-07-30T12:06:41;34.40;83.80
15656;DHT22;7928;43.614;1.456;2023-07-30T12:09:12;34.70;82.10
15656;DHT22;7928;43.614;1.456;2023-07-30T12:11:50;34.90;82.90
15656;DHT22;7928;43.614;1.456;2023-07-30T12:14:18;35.70;81.40
15656;DHT22;7928;43.614;1.456;2023-07-30T12:16:47;36.30;80.50
15656;DHT22;7928;43.614;1.456;2023-07-30T12:19:14;36.50;79.00
15656;DHT22;7928;43.614;1.456;2023-07-30T12:21:42;36.70;79.00
15656;DHT22;7928;43.614;1.456;2023-07-30T12:24:09;37.50;77.90
15656;DHT22;7928;43.614;1.456;2023-07-30T12:26:36;36.60;77.10
15656;DHT22;7928;43.614;1.456;2023-07-30T12:29:03;36.30;77.60
15656;DHT22;7928;43.614;1.456;2023-07-30T12:31:30;35.40;77.70
15656;DHT22;7928;43.614;1.456;2023-07-30T12:33:57;35.00;78.90
15656;DHT22;7928;43.614;1.456;2023-07-30T12:36:24;34.70;79.20
15656;DHT22;7928;43.614;1.456;2023-07-30T12:38:52;34.30;80.10
15656;DHT22;7928;43.614;1.456;2023-07-30T12:41:20;33.50;81.00
15656;DHT22;7928;43.614;1.456;2023-07-30T12:43:51;34.20;79.70
15656;DHT22;7928;43.614;1.456;2023-07-30T12:46:19;34.40;79.80
15656;DHT22;7928;43.614;1.456;2023-07-30T12:48:46;35.50;78.70
15656;DHT22;7928;43.614;1.456;2023-07-30T12:51:13;36.30;77.10
15656;DHT22;7928;43.614;1.456;2023-07-30T12:53:40;35.90;77.20
15656;DHT22;7928;43.614;1.456;2023-07-30T12:56:08;34.70;77.70
15656;DHT22;7928;43.614;1.456;2023-07-30T12:58:35;35.50;79.10
15656;DHT22;7928;43.614;1.456;2023-07-30T13:01:03;35.30;77.70
15656;DHT22;7928;43.614;1.456;2023-07-30T13:03:30;36.60;76.60
15656;DHT22;7928;43.614;1.456;2023-07-30T13:05:57;37.70;74.30
15656;DHT22;7928;43.614;1.456;2023-07-30T13:08:24;38.30;73.10
15656;DHT22;7928;43.614;1.456;2023-07-30T13:10:51;39.20;73.00
15656;DHT22;7928;43.614;1.456;2023-07-30T13:13:19;39.20;71.50
15656;DHT22;7928;43.614;1.456;2023-07-30T13:15:46;39.90;70.40
15656;DHT22;7928;43.614;1.456;2023-07-30T13:18:13;39.50;69.70
15656;DHT22;7928;43.614;1.456;2023-07-30T13:20:40;38.10;70.60
15656;DHT22;7928;43.614;1.456;2023-07-30T13:23:07;38.80;70.70
15656;DHT22;7928;43.614;1.456;2023-07-30T13:25:34;38.30;70.20
15656;DHT22;7928;43.614;1.456;2023-07-30T13:28:01;37.90;70.10
15656;DHT22;7928;43.614;1.456;2023-07-30T13:30:29;38.80;70.00
15656;DHT22;7928;43.614;1.456;2023-07-30T13:32:56;38.40;70.50
15656;DHT22;7928;43.614;1.456;2023-07-30T13:35:23;37.70;70.60
15656;DHT22;7928;43.614;1.456;2023-07-30T13:37:50;37.50;70.60
15656;DHT22;7928;43.614;1.456;2023-07-30T13:40:17;37.30;70.80
15656;DHT22;7928;43.614;1.456;2023-07-30T13:42:44;37.40;71.20
15656;DHT22;7928;43.614;1.456;2023-07-30T13:45:11;36.60;71.20
15656;DHT22;7928;43.614;1.456;2023-07-30T13:47:40;35.70;72.80
15656;DHT22;7928;43.614;1.456;2023-07-30T13:50:07;34.90;74.00
15656;DHT22;7928;43.614;1.456;2023-07-30T13:52:34;34.60;74.80
15656;DHT22;7928;43.614;1.456;2023-07-30T13:55:01;34.20;75.20
15656;DHT22;7928;43.614;1.456;2023-07-30T13:57:28;35.90;74.10
15656;DHT22;7928;43.614;1.456;2023-07-30T13:59:55;37.50;72.70
15656;DHT22;7928;43.614;1.456;2023-07-30T14:02:22;38.40;70.10
15656;DHT22;7928;43.614;1.456;2023-07-30T14:04:51;37.50;70.10
15656;DHT22;7928;43.614;1.456;2023-07-30T14:07:18;36.60;71.20
15656;DHT22;7928;43.614;1.456;2023-07-30T14:09:45;35.90;72.50
15656;DHT22;7928;43.614;1.456;2023-07-30T14:12:12;35.20;73.00
15656;DHT22;7928;43.614;1.456;2023-07-30T14:14:38;34.60;74.30
15656;DHT22;7928;43.614;1.456;2023-07-30T14:17:06;34.10;74.50
15656;DHT22;7928;43.614;1.456;2023-07-30T14:19:33;33.70;75.50
15656;DHT22;7928;43.614;1.456;2023-07-30T14:22:01;33.70;75.80
15656;DHT22;7928;43.614;1.456;2023-07-30T14:24:28;33.60;75.50
15656;DHT22;7928;43.614;1.456;2023-07-30T14:26:55;33.80;76.10
15656;DHT22;7928;43.614;1.456;2023-07-30T14:29:22;33.40;76.30
15656;DHT22;7928;43.614;1.456;2023-07-30T14:31:49;33.50;76.30
15656;DHT22;7928;43.614;1.456;2023-07-30T14:34:16;33.40;76.40
15656;DHT22;7928;43.614;1.456;2023-07-30T14:36:43;33.00;76.80
15656;DHT22;7928;43.614;1.456;2023-07-30T14:39:12;32.80;77.00
15656;DHT22;7928;43.614;1.456;2023-07-30T14:41:39;32.70;77.70
15656;DHT22;7928;43.614;1.456;2023-07-30T14:44:05;32.60;77.40
15656;DHT22;7928;43.614;1.456;2023-07-30T14:46:33;32.40;77.80
15656;DHT22;7928;43.614;1.456;2023-07-30T14:49:00;32.50;77.70
15656;DHT22;7928;43.614;1.456;2023-07-30T14:51:27;32.70;78.10
15656;DHT22;7928;43.614;1.456;2023-07-30T14:53:54;34.30;76.20
15656;DHT22;7928;43.614;1.456;2023-07-30T14:56:23;34.80;75.20
15656;DHT22;7928;43.614;1.456;2023-07-30T14:58:50;34.40;75.20
15656;DHT22;7928;43.614;1.456;2023-07-30T15:01:17;33.90;75.60
15656;DHT22;7928;43.614;1.456;2023-07-30T15:03:44;34.40;75.50
15656;DHT22;7928;43.614;1.456;2023-07-30T15:06:11;35.90;73.30
15656;DHT22;7928;43.614;1.456;2023-07-30T15:08:38;37.10;71.50
15656;DHT22;7928;43.614;1.456;2023-07-30T15:11:05;37.60;70.70
15656;DHT22;7928;43.614;1.456;2023-07-30T15:13:33;37.70;69.90
15656;DHT22;7928;43.614;1.456;2023-07-30T15:16:00;37.90;70.20
15656;DHT22;7928;43.614;1.456;2023-07-30T15:18:27;38.00;69.80
15656;DHT22;7928;43.614;1.456;2023-07-30T15:20:54;37.70;70.20
15656;DHT22;7928;43.614;1.456;2023-07-30T15:23:21;38.20;70.30
15656;DHT22;7928;43.614;1.456;2023-07-30T15:25:48;38.50;68.50
15656;DHT22;7928;43.614;1.456;2023-07-30T15:28:17;37.90;68.00
15656;DHT22;7928;43.614;1.456;2023-07-30T15:30:45;37.10;69.60
15656;DHT22;7928;43.614;1.456;2023-07-30T15:33:12;37.30;69.90
15656;DHT22;7928;43.614;1.456;2023-07-30T15:35:39;37.40;69.50
15656;DHT22;7928;43.614;1.456;2023-07-30T15:38:07;37.20;69.20
15656;DHT22;7928;43.614;1.456;2023-07-30T15:40:34;36.50;69.80
15656;DHT22;7928;43.614;1.456;2023-07-30T15:43:01;36.70;70.60
15656;DHT22;7928;43.614;1.456;2023-07-30T15:45:28;36.70;70.20
15656;DHT22;7928;43.614;1.456;2023-07-30T15:47:57;36.70;70.10